Time;durP1;ratioP1;P1;durP2;ratioP2;P2;SDS_P1;SDS_P2;PMS_P1;PMS_P2;Temp;Humidity;BMP_temperature;BMP_pressure;BME280_temperature;BME280_humidity;BME280_pressure;Samples;Min_cycle;Max_cycle;Signal;HPM_P1;HPM_P2
2023/05/07 00:00:28;;;;;;;;;;;;;;;-140.72;100.00;52715.53;5092508;28;19970;-71
2023/05/07 00:02:53;;;;;;;;;;;;;;;-140.72;100.00;52731.75;5094219;28;19924;-71
2023/05/07 00:05:25;;;;;;;;;;;;;;;-140.72;100.00;52719.59;5091394;28;19920;-71
2023/05/07 00:07:52;;;;;;;;;;;;;;;-140.72;100.00;52721.63;5090545;28;20309;-71
2023/05/07 00:10:18;;;;;;;;;;;;;;;-140.72;100.00;52699.31;5082561;28;22247;-71
2023/05/07 00:12:43;;;;;;;;;;;;;;;-140.72;100.00;52733.78;5092264;28;19938;-71
2023/05/07 00:15:08;;;;;;;;;;;;;;;-140.72;100.00;52723.66;5090692;28;19920;-71
2023/05/07 00:17:33;;;;;;;;;;;;;;;-140.72;100.00;52719.59;5097085;28;20051;-71
2023/05/07 00:19:59;;;;;;;;;;;;;;;-140.72;100.00;52723.66;5096959;28;19951;-71
2023/05/07 00:22:24;;;;;;;;;;;;;;;-140.72;100.00;52741.91;5098826;28;19924;-71
2023/05/07 00:24:49;;;;;;;;;;;;;;;-140.72;100.00;52695.25;5091761;28;19920;-71
2023/05/07 00:27:14;;;;;;;;;;;;;;;-140.72;100.00;52711.47;5088708;28;20334;-71
2023/05/07 00:29:40;;;;;;;;;;;;;;;-140.72;100.00;52715.53;5078557;28;19923;-71
2023/05/07 00:32:05;;;;;;;;;;;;;;;-140.72;100.00;52715.53;5093976;28;19931;-72
2023/05/07 00:34:30;;;;;;;;;;;;;;;-140.72;100.00;52683.06;5107466;28;19955;-72
2023/05/07 00:36:55;;;;;;;;;;;;;;;-140.72;100.00;52729.75;5082201;28;19924;-71
2023/05/07 00:39:21;;;;;;;;;;;;;;;-140.72;100.00;52707.41;5092102;28;19915;-71
2023/05/07 00:41:47;;;;;;;;;;;;;;;-140.72;100.00;52691.19;5089526;28;20363;-73
2023/05/07 00:44:12;;;;;;;;;;;;;;;-140.72;100.00;52697.28;5091279;28;19920;-71
2023/05/07 00:46:37;;;;;;;;;;;;;;;-140.72;100.00;52743.94;5084785;28;19917;-70
2023/05/07 00:49:02;;;;;;;;;;;;;;;-140.72;100.00;52743.94;5097336;28;19928;-71
2023/05/07 00:51:28;;;;;;;;;;;;;;;-140.72;100.00;52695.25;5091527;28;19923;-71
2023/05/07 00:53:53;;;;;;;;;;;;;;;-140.72;100.00;52737.84;5090846;28;19928;-71
2023/05/07 00:56:20;;;;;;;;;;;;;;;-140.72;100.00;52729.75;5094514;28;19963;-71
2023/05/07 00:58:45;;;;;;;;;;;;;;;-140.72;100.00;52760.19;5089827;28;19923;-70
2023/05/07 01:01:11;;;;;;;;;;;;;;;-140.72;100.00;52752.06;5097348;28;19980;-71
2023/05/07 01:03:36;;;;;;;;;;;;;;;-140.72;100.00;52727.72;5104663;28;20015;-71
2023/05/07 01:06:02;;;;;;;;;;;;;;;-140.72;100.00;52725.69;5089909;28;20007;-71
2023/05/07 01:08:29;;;;;;;;;;;;;;;-140.72;100.00;52717.56;5090707;28;19924;-70
2023/05/07 01:10:55;;;;;;;;;;;;;;;-140.72;100.00;52731.75;5087875;28;19946;-70
2023/05/07 01:13:22;;;;;;;;;;;;;;;-140.72;100.00;52739.88;5090410;28;23618;-71
2023/05/07 01:15:48;;;;;;;;;;;;;;;-140.72;100.00;52741.91;5091429;28;19920;-71
2023/05/07 01:18:13;;;;;;;;;;;;;;;-140.72;100.00;52715.53;5084278;28;19928;-71
2023/05/07 01:20:38;;;;;;;;;;;;;;;-140.72;100.00;52745.97;5095372;28;19927;-71
2023/05/07 01:23:05;;;;;;;;;;;;;;;-140.72;100.00;52729.75;5096929;28;19916;-72
2023/05/07 01:25:30;;;;;;;;;;;;;;;-140.72;100.00;52723.66;5095022;28;19916;-71
2023/05/07 01:27:56;;;;;;;;;;;;;;;-140.72;100.00;52731.75;5095933;28;21060;-71
2023/05/07 01:30:22;;;;;;;;;;;;;;;-140.72;100.00;52727.72;5091264;28;19921;-71
2023/05/07 01:32:50;;;;;;;;;;;;;;;-140.72;100.00;52717.56;5084051;28;20405;-71
2023/05/07 01:35:20;;;;;;;;;;;;;;;-140.72;100.00;52731.75;5092475;28;19920;-71
2023/05/07 01:37:47;;;;;;;;;;;;;;;-140.72;100.00;52721.63;5080760;28;20005;-71
2023/05/07 01:40:13;;;;;;;;;;;;;;;-140.72;100.00;52672.91;5085749;28;19931;-72
2023/05/07 01:42:38;;;;;;;;;;;;;;;-140.72;100.00;52737.84;5089110;28;19916;-71
2023/05/07 01:45:04;;;;;;;;;;;;;;;-140.72;100.00;52743.94;5095148;28;19961;-71
2023/05/07 01:47:29;;;;;;;;;;;;;;;-140.72;100.00;52756.13;5094052;28;20255;-72
2023/05/07 01:49:55;;;;;;;;;;;;;;;-140.72;100.00;52737.84;5091108;28;19916;-72
2023/05/07 01:52:20;;;;;;;;;;;;;;;-140.72;100.00;52774.38;5088891;28;19920;-72
2023/05/07 01:54:45;;;;;;;;;;;;;;;-140.72;100.00;52697.28;5095943;28;19965;-72
2023/05/07 01:57:11;;;;;;;;;;;;;;;-140.72;100.00;52711.47;5092416;28;19956;-72
2023/05/07 01:59:36;;;;;;;;;;;;;;;-140.72;100.00;52729.75;5096236;28;20369;-72
2023/05/07 02:02:01;;;;;;;;;;;;;;;-140.72;100.00;52745.97;5085733;28;19928;-72
2023/05/07 02:04:26;;;;;;;;;;;;;;;-140.72;100.00;52709.44;5088859;28;20382;-72
2023/05/07 02:06:52;;;;;;;;;;;;;;;-140.72;100.00;52764.25;5080363;28;19920;-72
2023/05/07 02:09:18;;;;;;;;;;;;;;;-140.72;100.00;52735.81;5083113;28;20386;-71
2023/05/07 02:11:43;;;;;;;;;;;;;;;-140.72;100.00;52721.63;5081520;28;19916;-72
2023/05/07 02:14:08;;;;;;;;;;;;;;;-140.72;100.00;52731.75;5096393;28;19920;-72
2023/05/07 02:16:33;;;;;;;;;;;;;;;-140.72;100.00;52723.66;5094301;28;20287;-71
2023/05/07 02:18:59;;;;;;;;;;;;;;;-140.72;100.00;52733.78;5089762;28;19952;-72
2023/05/07 02:21:25;;;;;;;;;;;;;;;-140.72;100.00;52731.75;5078685;28;19920;-72
2023/05/07 02:23:51;;;;;;;;;;;;;;;-140.72;100.00;52752.06;5085741;28;19920;-72
2023/05/07 02:26:16;;;;;;;;;;;;;;;-140.72;100.00;52743.94;5092572;28;19920;-71
2023/05/07 02:28:51;;;;;;;;;;;;;;;-140.72;100.00;52737.84;5086930;28;19916;-71
2023/05/07 02:31:28;;;;;;;;;;;;;;;-140.72;100.00;52745.97;5096325;28;20327;-71
2023/05/07 02:33:53;;;;;;;;;;;;;;;-140.72;100.00;52766.25;5102251;28;19920;-72
2023/05/07 02:36:18;;;;;;;;;;;;;;;-140.72;100.00;52748.00;5092744;28;20337;-72
2023/05/07 02:38:43;;;;;;;;;;;;;;;-140.72;100.00;52752.06;5087720;28;20375;-72
2023/05/07 02:41:09;;;;;;;;;;;;;;;-140.72;100.00;52713.50;5088452;28;19924;-72
2023/05/07 02:43:34;;;;;;;;;;;;;;;-140.72;100.00;52768.28;5080478;28;19927;-72
2023/05/07 02:46:08;;;;;;;;;;;;;;;-140.72;100.00;52723.66;5087307;28;20346;-72
2023/05/07 02:48:34;;;;;;;;;;;;;;;-140.72;100.00;52731.75;5093019;28;19939;-72
2023/05/07 02:50:59;;;;;;;;;;;;;;;-140.72;100.00;52737.84;5089804;28;20354;-72
2023/05/07 02:53:26;;;;;;;;;;;;;;;-140.72;100.00;52727.72;5085029;28;19951;-71
2023/05/07 02:55:55;;;;;;;;;;;;;;;-140.72;100.00;52723.66;5089269;28;19923;-72
2023/05/07 02:58:20;;;;;;;;;;;;;;;-140.72;100.00;52745.97;5090250;28;19916;-72
2023/05/07 03:00:46;;;;;;;;;;;;;;;-140.72;100.00;52752.06;5085682;28;20310;-72
2023/05/07 03:03:11;;;;;;;;;;;;;;;-140.72;100.00;52715.53;5087971;28;20001;-71
2023/05/07 03:05:36;;;;;;;;;;;;;;;-140.72;100.00;52715.53;5089825;28;19923;-71
2023/05/07 03:08:02;;;;;;;;;;;;;;;-140.72;100.00;52727.72;5085128;28;19920;-71
2023/05/07 03:10:27;;;;;;;;;;;;;;;-140.72;100.00;52758.16;5092845;28;19934;-72
2023/05/07 03:12:53;;;;;;;;;;;;;;;-140.72;100.00;52739.88;5086836;28;19924;-72
2023/05/07 03:15:18;;;;;;;;;;;;;;;-140.72;100.00;52745.97;5090595;28;20419;-72
2023/05/07 03:17:43;;;;;;;;;;;;;;;-140.72;100.00;52731.75;5079433;28;19916;-72
2023/05/07 03:20:09;;;;;;;;;;;;;;;-140.72;100.00;52750.03;5098585;28;19919;-72
2023/05/07 03:22:34;;;;;;;;;;;;;;;-140.72;100.00;52727.72;5090600;28;19928;-72
2023/05/07 03:25:00;;;;;;;;;;;;;;;-140.72;100.00;52764.25;5091563;28;19965;-72
2023/05/07 03:27:25;;;;;;;;;;;;;;;-140.72;100.00;52731.75;5088836;28;20291;-72
2023/05/07 03:29:50;;;;;;;;;;;;;;;-140.72;100.00;52717.56;5095882;28;19915;-71
2023/05/07 03:32:15;;;;;;;;;;;;;;;-140.72;100.00;52780.47;5101003;28;19930;-72
2023/05/07 03:34:41;;;;;;;;;;;;;;;-140.72;100.00;52760.19;5099420;28;19923;-71
2023/05/07 03:37:06;;;;;;;;;;;;;;;-140.72;100.00;52731.75;5089057;28;19939;-70
2023/05/07 03:39:32;;;;;;;;;;;;;;;-140.72;100.00;52723.66;5088394;28;19993;-72
2023/05/07 03:41:57;;;;;;;;;;;;;;;-140.72;100.00;52743.94;5091857;28;19926;-71
2023/05/07 03:44:22;;;;;;;;;;;;;;;-140.72;100.00;52784.53;5094226;28;19951;-72
2023/05/07 03:46:48;;;;;;;;;;;;;;;-140.72;100.00;52739.88;5091353;28;19917;-72
2023/05/07 03:49:13;;;;;;;;;;;;;;;-140.72;100.00;52737.84;5091768;28;19939;-71
2023/05/07 03:51:38;;;;;;;;;;;;;;;-140.72;100.00;52723.66;5094905;28;19962;-71
2023/05/07 03:54:03;;;;;;;;;;;;;;;-140.72;100.00;52764.25;5093461;28;19920;-71
2023/05/07 03:56:29;;;;;;;;;;;;;;;-140.72;100.00;52739.88;5093327;28;19923;-71
2023/05/07 03:58:54;;;;;;;;;;;;;;;-140.72;100.00;52756.13;5088227;28;19938;-71
2023/05/07 04:01:19;;;;;;;;;;;;;;;-140.72;100.00;52741.91;5092229;28;20323;-71
2023/05/07 04:03:45;;;;;;;;;;;;;;;-140.72;100.00;52768.28;5085522;28;19928;-71
2023/05/07 04:06:10;;;;;;;;;;;;;;;-140.72;100.00;52725.69;5077881;28;19921;-71
2023/05/07 04:08:35;;;;;;;;;;;;;;;-140.72;100.00;52743.94;5092292;28;20019;-71
2023/05/07 04:11:00;;;;;;;;;;;;;;;-140.72;100.00;52774.38;5091878;28;19916;-71
2023/05/07 04:13:26;;;;;;;;;;;;;;;-140.72;100.00;52719.59;5091862;28;19981;-71
2023/05/07 04:15:51;;;;;;;;;;;;;;;-140.72;100.00;52725.69;5086926;27;20370;-70
2023/05/07 04:18:17;;;;;;;;;;;;;;;-140.72;100.00;52717.56;5087977;28;19920;-71
2023/05/07 04:20:42;;;;;;;;;;;;;;;-140.72;100.00;52719.59;5094387;28;19916;-71
2023/05/07 04:23:07;;;;;;;;;;;;;;;-140.72;100.00;52772.34;5087812;28;19921;-71
2023/05/07 04:25:33;;;;;;;;;;;;;;;-140.72;100.00;52721.63;5086655;28;19920;-71
2023/05/07 04:27:58;;;;;;;;;;;;;;;-140.72;100.00;52752.06;5091593;28;19927;-71
2023/05/07 04:30:24;;;;;;;;;;;;;;;-140.72;100.00;52739.88;5084417;28;19921;-70
2023/05/07 04:32:49;;;;;;;;;;;;;;;-140.72;100.00;52723.66;5083635;28;19916;-71
2023/05/07 04:35:14;;;;;;;;;;;;;;;-140.72;100.00;52707.41;5093558;28;19928;-71
2023/05/07 04:37:39;;;;;;;;;;;;;;;-140.72;100.00;52739.88;5093671;28;20379;-71
2023/05/07 04:40:05;;;;;;;;;;;;;;;-140.72;100.00;52768.28;5097249;28;19924;-71
2023/05/07 04:42:31;;;;;;;;;;;;;;;-140.72;100.00;52756.13;5091412;28;19920;-71
2023/05/07 04:44:56;;;;;;;;;;;;;;;-140.72;100.00;52723.66;5097905;28;20727;-71
2023/05/07 04:47:21;;;;;;;;;;;;;;;-140.72;100.00;52731.75;5088410;28;20286;-71
2023/05/07 04:49:46;;;;;;;;;;;;;;;-140.72;100.00;52687.13;5096177;28;20014;-71
2023/05/07 04:52:12;;;;;;;;;;;;;;;-140.72;100.00;52752.06;5090131;28;20003;-71
2023/05/07 04:54:37;;;;;;;;;;;;;;;-140.72;100.00;52735.81;5082573;28;19916;-71
2023/05/07 04:57:03;;;;;;;;;;;;;;;-140.72;100.00;52735.81;5083616;28;19982;-70
2023/05/07 04:59:28;;;;;;;;;;;;;;;-140.72;100.00;52711.47;5093308;28;19973;-71
2023/05/07 05:01:53;;;;;;;;;;;;;;;-140.72;100.00;52719.59;5092285;28;20293;-71
2023/05/07 05:04:19;;;;;;;;;;;;;;;-140.72;100.00;52748.00;5079696;28;20431;-71
2023/05/07 05:06:44;;;;;;;;;;;;;;;-140.72;100.00;52713.50;5093305;28;19916;-71
2023/05/07 05:09:09;;;;;;;;;;;;;;;-140.72;100.00;52715.53;5099367;28;20381;-71
2023/05/07 05:11:35;;;;;;;;;;;;;;;-140.72;100.00;52719.59;5095791;28;19916;-71
2023/05/07 05:14:01;;;;;;;;;;;;;;;-140.72;100.00;52727.72;5093189;28;19917;-71
2023/05/07 05:16:27;;;;;;;;;;;;;;;-140.72;100.00;52727.72;5100538;28;19924;-71
2023/05/07 05:18:53;;;;;;;;;;;;;;;-140.72;100.00;52750.03;5087527;28;20007;-71
2023/05/07 05:21:19;;;;;;;;;;;;;;;-140.72;100.00;52721.63;5096377;28;20254;-71
2023/05/07 05:23:44;;;;;;;;;;;;;;;-140.72;100.00;52735.81;5099690;28;19920;-71
2023/05/07 05:26:09;;;;;;;;;;;;;;;-140.72;100.00;52721.63;5091530;28;19923;-71
2023/05/07 05:28:35;;;;;;;;;;;;;;;-140.72;100.00;52705.38;5091015;28;20022;-71
2023/05/07 05:31:00;;;;;;;;;;;;;;;-140.72;100.00;52741.91;5088540;28;19931;-71
2023/05/07 05:33:25;;;;;;;;;;;;;;;-140.72;100.00;52733.78;5088512;28;19927;-70
2023/05/07 05:35:51;;;;;;;;;;;;;;;-140.72;100.00;52725.69;5093343;28;19928;-72
2023/05/07 05:38:16;;;;;;;;;;;;;;;-140.72;100.00;52709.44;5098741;27;19916;-71
2023/05/07 05:40:41;;;;;;;;;;;;;;;-140.72;100.00;52737.84;5081721;28;19923;-70
2023/05/07 05:43:06;;;;;;;;;;;;;;;-140.72;100.00;52796.72;5094030;28;19916;-74
2023/05/07 05:45:31;;;;;;;;;;;;;;;-140.72;100.00;52719.59;5090507;28;19925;-74
2023/05/07 05:47:57;;;;;;;;;;;;;;;-140.72;100.00;52711.47;5096930;28;19942;-78
2023/05/07 05:50:22;;;;;;;;;;;;;;;-140.72;100.00;52723.66;5085765;28;19924;-75
2023/05/07 05:52:48;;;;;;;;;;;;;;;-140.72;100.00;52699.31;5082922;28;19981;-74
2023/05/07 05:55:13;;;;;;;;;;;;;;;-140.72;100.00;52703.34;5084362;28;19952;-74
2023/05/07 05:57:38;;;;;;;;;;;;;;;-140.72;100.00;52737.84;5087977;28;19921;-74
2023/05/07 06:00:04;;;;;;;;;;;;;;;-140.72;100.00;52711.47;5082456;28;20297;-74
2023/05/07 06:02:29;;;;;;;;;;;;;;;-140.72;100.00;52705.38;5087901;28;19934;-75
2023/05/07 06:04:55;;;;;;;;;;;;;;;-140.72;100.00;52715.53;5088648;28;19920;-76
2023/05/07 06:07:20;;;;;;;;;;;;;;;-140.72;100.00;52717.56;5084037;28;19920;-76
2023/05/07 06:09:45;;;;;;;;;;;;;;;-140.72;100.00;52735.81;5102876;28;19924;-74
2023/05/07 06:12:11;;;;;;;;;;;;;;;-140.72;100.00;52719.59;5081762;28;19969;-75
2023/05/07 06:14:36;;;;;;;;;;;;;;;-140.72;100.00;52731.75;5102185;28;20042;-75
2023/05/07 06:17:01;;;;;;;;;;;;;;;-140.72;100.00;52711.47;5085771;28;19917;-75
2023/05/07 06:19:27;;;;;;;;;;;;;;;-140.72;100.00;52719.59;5084144;28;20366;-75
2023/05/07 06:21:53;;;;;;;;;;;;;;;-140.72;100.00;52735.81;5094700;28;20061;-75
2023/05/07 06:24:18;;;;;;;;;;;;;;;-140.72;100.00;52695.25;5080957;28;19963;-75
2023/05/07 06:26:43;;;;;;;;;;;;;;;-140.72;100.00;52713.50;5085294;28;19963;-75
2023/05/07 06:29:08;;;;;;;;;;;;;;;-140.72;100.00;52772.34;5080797;28;20379;-75
2023/05/07 06:31:34;;;;;;;;;;;;;;;-140.72;100.00;52739.88;5085657;28;20401;-75
2023/05/07 06:33:59;;;;;;;;;;;;;;;-140.72;100.00;52672.91;5094950;28;19927;-75
2023/05/07 06:36:40;;;;;;;;;;;;;;;-140.72;100.00;52752.06;5088505;28;20532;-75
2023/05/07 06:39:08;;;;;;;;;;;;;;;-140.72;100.00;52701.31;5087577;28;20002;-74
2023/05/07 06:41:35;;;;;;;;;;;;;;;-140.72;100.00;52745.97;5091258;28;19923;-73
2023/05/07 06:44:00;;;;;;;;;;;;;;;-140.72;100.00;52703.34;5091931;28;19920;-72
2023/05/07 06:46:34;;;;;;;;;;;;;;;-140.72;100.00;52727.72;5090785;28;20007;-72
2023/05/07 06:49:00;;;;;;;;;;;;;;;-140.72;100.00;52666.84;5090480;28;19923;-72
2023/05/07 06:51:25;;;;;;;;;;;;;;;-140.72;100.00;52707.41;5092236;28;20274;-73
2023/05/07 06:53:50;;;;;;;;;;;;;;;-140.72;100.00;52674.94;5096347;28;19920;-72
2023/05/07 06:56:15;;;;;;;;;;;;;;;-140.72;100.00;52668.84;5095441;28;19991;-72
2023/05/07 06:58:41;;;;;;;;;;;;;;;-140.72;100.00;52703.34;5094920;28;19982;-71
2023/05/07 07:01:06;;;;;;;;;;;;;;;-140.72;100.00;52697.28;5094308;28;20362;-71
2023/05/07 07:03:31;;;;;;;;;;;;;;;-140.72;100.00;52709.44;5092714;28;19920;-71
2023/05/07 07:05:56;;;;;;;;;;;;;;;-140.72;100.00;52683.06;5092245;28;19981;-72
2023/05/07 07:08:22;;;;;;;;;;;;;;;-140.72;100.00;52693.22;5097550;28;20683;-72
2023/05/07 07:10:47;;;;;;;;;;;;;;;-140.72;100.00;52650.59;5101701;28;19916;-76
2023/05/07 07:13:13;;;;;;;;;;;;;;;-140.72;100.00;52672.91;5087326;28;20328;-76
2023/05/07 07:15:38;;;;;;;;;;;;;;;-140.72;100.00;52668.84;5088716;28;20407;-76
2023/05/07 07:18:03;;;;;;;;;;;;;;;-140.72;100.00;52658.72;5100415;28;20283;-76
2023/05/07 07:20:29;;;;;;;;;;;;;;;-140.72;100.00;52676.97;5092809;28;20010;-76
2023/05/07 07:22:54;;;;;;;;;;;;;;;-140.72;100.00;52662.78;5098364;28;19916;-76
2023/05/07 07:25:19;;;;;;;;;;;;;;;-140.72;100.00;52626.25;5096936;28;19931;-75
2023/05/07 07:27:45;;;;;;;;;;;;;;;-140.72;100.00;52622.19;5095039;28;19928;-77
2023/05/07 07:30:10;;;;;;;;;;;;;;;-140.72;100.00;52632.34;5104725;28;19915;-77
2023/05/07 07:32:35;;;;;;;;;;;;;;;-140.72;100.00;52583.63;5086696;28;20026;-73
2023/05/07 07:35:01;;;;;;;;;;;;;;;-140.72;100.00;52624.22;5094486;28;19938;-72
2023/05/07 07:37:26;;;;;;;;;;;;;;;-140.72;100.00;52646.53;5091531;28;19992;-72
2023/05/07 07:39:52;;;;;;;;;;;;;;;-140.72;100.00;52624.22;5081095;28;20357;-72
2023/05/07 07:42:18;;;;;;;;;;;;;;;-140.72;100.00;52618.13;5089982;28;19920;-72
2023/05/07 07:44:43;;;;;;;;;;;;;;;-140.72;100.00;52620.16;5093581;28;19916;-73
2023/05/07 07:47:08;;;;;;;;;;;;;;;-140.72;100.00;52605.94;5091325;28;19921;-74
2023/05/07 07:49:34;;;;;;;;;;;;;;;-140.72;100.00;52636.38;5085971;28;19927;-73
2023/05/07 07:51:59;;;;;;;;;;;;;;;-140.72;100.00;52638.41;5095551;28;19938;-72
2023/05/07 07:54:25;;;;;;;;;;;;;;;-140.72;100.00;52603.94;5089111;28;20000;-72
2023/05/07 07:56:50;;;;;;;;;;;;;;;-140.72;100.00;52630.31;5095964;28;19969;-72
2023/05/07 07:59:18;;;;;;;;;;;;;;;-140.72;100.00;52597.84;5090107;28;19924;-72
2023/05/07 08:01:43;;;;;;;;;;;;;;;-140.72;100.00;52593.78;5095782;28;19920;-72
2023/05/07 08:04:09;;;;;;;;;;;;;;;-140.72;100.00;52616.09;5091643;28;20317;-73
2023/05/07 08:06:34;;;;;;;;;;;;;;;-140.72;100.00;52601.91;5087248;28;19917;-72
2023/05/07 08:08:59;;;;;;;;;;;;;;;-140.72;100.00;52569.44;5092009;28;19922;-72
2023/05/07 08:11:25;;;;;;;;;;;;;;;-140.72;100.00;52541.03;5091776;28;19916;-73
2023/05/07 08:13:50;;;;;;;;;;;;;;;-140.72;100.00;52498.41;5092538;28;19920;-72
2023/05/07 08:16:16;;;;;;;;;;;;;;;-140.72;100.00;52508.56;5088402;28;19931;-72
2023/05/07 08:18:41;;;;;;;;;;;;;;;-140.72;100.00;52520.72;5099232;27;20366;-72
2023/05/07 08:21:06;;;;;;;;;;;;;;;-140.72;100.00;52526.81;5092830;28;20011;-73
2023/05/07 08:23:31;;;;;;;;;;;;;;;-140.72;100.00;52508.56;5091166;28;19916;-71
2023/05/07 08:25:57;;;;;;;;;;;;;;;-140.72;100.00;52518.69;5094966;28;19925;-71
2023/05/07 08:28:24;;;;;;;;;;;;;;;-140.72;100.00;52522.75;5089842;28;19921;-73
2023/05/07 08:30:50;;;;;;;;;;;;;;;-140.72;100.00;52534.94;5088900;28;19927;-72
2023/05/07 08:33:16;;;;;;;;;;;;;;;-140.72;100.00;52506.53;5085478;28;19966;-72
2023/05/07 08:35:41;;;;;;;;;;;;;;;-140.72;100.00;52549.13;5088821;28;20019;-78
2023/05/07 08:38:06;;;;;;;;;;;;;;;-140.72;100.00;52512.59;5096266;28;19981;-73
2023/05/07 08:40:36;;;;;;;;;;;;;;;-140.72;100.00;52543.03;5080785;28;19920;-73
2023/05/07 08:43:02;;;;;;;;;;;;;;;-140.72;100.00;52514.63;5098512;28;19920;-73
2023/05/07 08:45:27;;;;;;;;;;;;;;;-140.72;100.00;52520.72;5096644;28;19920;-73
2023/05/07 08:47:58;;;;;;;;;;;;;;;-140.72;100.00;52553.19;5084800;28;20337;-72
2023/05/07 08:50:23;;;;;;;;;;;;;;;-140.72;100.00;52539.00;5092749;28;19950;-73
2023/05/07 08:52:49;;;;;;;;;;;;;;;-140.72;100.00;52541.03;5088268;28;19916;-71
2023/05/07 08:55:15;;;;;;;;;;;;;;;-140.72;100.00;52553.19;5088331;28;19920;-69
2023/05/07 08:57:40;;;;;;;;;;;;;;;-140.72;100.00;52518.69;5083054;28;19924;-69
2023/05/07 09:00:06;;;;;;;;;;;;;;;-140.72;100.00;52534.94;5092866;28;19924;-70
2023/05/07 09:02:32;;;;;;;;;;;;;;;-140.72;100.00;52514.63;5092414;28;19986;-69
2023/05/07 09:04:57;;;;;;;;;;;;;;;-140.72;100.00;52520.72;5089685;28;19971;-70
2023/05/07 09:07:22;;;;;;;;;;;;;;;-140.72;100.00;52498.41;5085973;28;20275;-71
2023/05/07 09:09:48;;;;;;;;;;;;;;;-140.72;100.00;52484.19;5088980;28;19961;-69
2023/05/07 09:12:13;;;;;;;;;;;;;;;-140.72;100.00;52522.75;5088811;28;20294;-71
2023/05/07 09:14:39;;;;;;;;;;;;;;;-140.72;100.00;52508.56;5094919;28;19963;-71
2023/05/07 09:17:04;;;;;;;;;;;;;;;-140.72;100.00;52502.47;5088825;28;19920;-73
2023/05/07 09:19:29;;;;;;;;;;;;;;;-140.72;100.00;52490.28;5080577;28;19923;-73
2023/05/07 09:22:01;;;;;;;;;;;;;;;-140.72;100.00;52467.97;5087667;28;19923;-73
2023/05/07 09:24:28;;;;;;;;;;;;;;;-140.72;100.00;52490.28;5096938;28;19977;-78
2023/05/07 09:26:55;;;;;;;;;;;;;;;-140.72;100.00;52492.31;5091097;28;19920;-78
2023/05/07 09:29:20;;;;;;;;;;;;;;;-140.72;100.00;52508.56;5095115;28;19983;-79
2023/05/07 09:31:45;;;;;;;;;;;;;;;-140.72;100.00;52506.53;5089038;28;19974;-78
2023/05/07 09:34:11;;;;;;;;;;;;;;;-140.72;100.00;52516.66;5087354;28;19920;-76
2023/05/07 09:36:36;;;;;;;;;;;;;;;-140.72;100.00;52516.66;5091283;28;19916;-77
2023/05/07 09:39:01;;;;;;;;;;;;;;;-140.72;100.00;52512.59;5094756;28;20392;-78
2023/05/07 09:41:29;;;;;;;;;;;;;;;-140.72;100.00;52478.13;5093398;28;19920;-77
2023/05/07 09:43:55;;;;;;;;;;;;;;;-140.72;100.00;52514.63;5087527;28;20372;-73
2023/05/07 09:46:25;;;;;;;;;;;;;;;-140.72;100.00;52524.78;5091518;28;20262;-70
2023/05/07 09:48:52;;;;;;;;;;;;;;;-140.72;100.00;52585.66;5092991;28;20367;-71
2023/05/07 09:51:20;;;;;;;;;;;;;;;-140.72;100.00;52547.09;5091716;28;19960;-71
2023/05/07 09:53:46;;;;;;;;;;;;;;;-140.72;100.00;52565.38;5085582;28;19934;-70
2023/05/07 09:56:12;;;;;;;;;;;;;;;-140.72;100.00;52476.09;5091059;28;19920;-74
2023/05/07 09:58:41;;;;;;;;;;;;;;;-140.72;100.00;52480.16;5094039;28;19939;-73
2023/05/07 10:01:06;;;;;;;;;;;;;;;-140.72;100.00;52398.97;5088376;28;19929;-72
2023/05/07 10:03:33;;;;;;;;;;;;;;;-140.72;100.00;52380.72;5095613;28;19928;-72
2023/05/07 10:05:59;;;;;;;;;;;;;;;-140.72;100.00;52370.56;5094008;28;19919;-72
2023/05/07 10:08:24;;;;;;;;;;;;;;;-140.72;100.00;52344.19;5094605;28;19920;-71
2023/05/07 10:10:50;;;;;;;;;;;;;;;-140.72;100.00;52340.13;5091279;28;19926;-73
2023/05/07 10:13:16;;;;;;;;;;;;;;;-140.72;100.00;52321.88;5088507;28;20159;-75
2023/05/07 10:15:41;;;;;;;;;;;;;;;-140.72;100.00;52291.44;5094191;28;19924;-74
2023/05/07 10:18:07;;;;;;;;;;;;;;;-140.72;100.00;52315.78;5093348;28;19934;-74
2023/05/07 10:20:34;;;;;;;;;;;;;;;-140.72;71.58;52327.97;5098797;28;20073;-74
2023/05/07 10:23:02;;;;;;;;;;;;;;;-140.72;59.15;52303.59;5094133;28;19931;-74
2023/05/07 10:25:31;;;;;;;;;;;;;;;-140.72;0.00;52325.94;5088400;28;20344;-73
2023/05/07 10:28:01;;;;;;;;;;;;;;;-140.72;0.00;52269.13;5093082;28;19972;-72
2023/05/07 10:30:38;;;;;;;;;;;;;;;-140.72;0.00;52230.56;5091356;28;20468;-74
2023/05/07 10:33:08;;;;;;;;;;;;;;;-140.72;0.00;52252.88;5090659;28;20026;-74
2023/05/07 10:35:38;;;;;;;;;;;;;;;-140.72;0.00;52242.75;5092521;28;20027;-73
2023/05/07 10:38:04;;;;;;;;;;;;;;;-140.72;0.00;52228.53;5092487;28;19920;-73
2023/05/07 10:40:30;;;;;;;;;;;;;;;-140.72;0.00;52244.78;5093794;28;19934;-74
2023/05/07 10:43:00;;;;;;;;;;;;;;;-140.72;0.00;52236.66;5095222;28;20436;-72
2023/05/07 10:45:25;;;;;;;;;;;;;;;-140.72;0.00;52250.84;5094693;28;19926;-73
2023/05/07 10:48:06;;;;;;;;;;;;;;;-140.72;0.00;52228.53;5094870;28;20293;-72
2023/05/07 10:50:31;;;;;;;;;;;;;;;-140.72;0.00;52224.47;5095705;28;19920;-72
2023/05/07 10:53:15;;;;;;;;;;;;;;;-140.72;0.00;52163.59;5088850;27;19924;-75
2023/05/07 10:55:40;;;;;;;;;;;;;;;-140.72;0.00;52198.09;5094426;28;19920;-75
2023/05/07 10:58:33;;;;;;;;;;;;;;;-140.72;0.00;52214.34;5087764;27;19974;-74
2023/05/07 11:01:02;;;;;;;;;;;;;;;-140.72;0.00;52228.53;5084403;28;20363;-75
2023/05/07 11:03:27;;;;;;;;;;;;;;;-140.72;0.00;52263.03;5088897;28;19927;-74
2023/05/07 11:06:08;;;;;;;;;;;;;;;-140.72;0.00;52317.81;5089322;28;19920;-74
2023/05/07 11:08:51;;;;;;;;;;;;;;;-140.72;0.00;52342.16;5087373;28;19930;-74
2023/05/07 11:11:17;;;;;;;;;;;;;;;-140.72;0.00;52378.69;5090455;28;20336;-71
2023/05/07 11:13:44;;;;;;;;;;;;;;;-140.72;0.00;52342.16;5094136;28;19978;-71
2023/05/07 11:16:19;;;;;;;;;;;;;;;-140.72;0.00;52370.56;5093734;28;20370;-70
2023/05/07 11:18:49;;;;;;;;;;;;;;;-140.72;0.00;52388.84;5089814;28;20294;-71
2023/05/07 11:21:35;;;;;;;;;;;;;;;-140.72;0.00;52382.75;5091279;28;19939;-71
2023/05/07 11:24:01;;;;;;;;;;;;;;;-140.72;0.00;52388.84;5089466;28;19928;-71
2023/05/07 11:26:27;;;;;;;;;;;;;;;-140.72;0.00;52396.94;5092059;28;20421;-71
2023/05/07 11:28:53;;;;;;;;;;;;;;;-140.72;0.00;52403.03;5090163;28;19927;-72
2023/05/07 11:31:23;;;;;;;;;;;;;;;-140.72;0.00;52394.91;5091647;28;19943;-71
2023/05/07 11:33:48;;;;;;;;;;;;;;;-140.72;0.00;52431.44;5088303;28;19916;-71
2023/05/07 11:36:14;;;;;;;;;;;;;;;-140.72;0.00;52419.28;5087415;28;20270;-71
2023/05/07 11:38:39;;;;;;;;;;;;;;;-140.72;0.00;52405.06;5091271;28;19967;-72
2023/05/07 11:41:05;;;;;;;;;;;;;;;-140.72;0.00;52398.97;5093023;28;19923;-72
2023/05/07 11:43:30;;;;;;;;;;;;;;;-140.72;0.00;52409.13;5100279;28;19920;-72
2023/05/07 11:46:04;;;;;;;;;;;;;;;-140.72;0.00;52403.03;5094316;27;19928;-72
2023/05/07 11:48:30;;;;;;;;;;;;;;;-140.72;0.00;52459.84;5097553;28;19921;-72
2023/05/07 11:50:58;;;;;;;;;;;;;;;-140.72;0.00;52411.16;5098648;28;19952;-70
2023/05/07 11:53:26;;;;;;;;;;;;;;;-140.72;0.00;52401.00;5099502;28;19928;-71
2023/05/07 11:55:52;;;;;;;;;;;;;;;-140.72;0.00;52437.53;5096271;28;20318;-70
2023/05/07 11:58:21;;;;;;;;;;;;;;;-140.72;0.00;52478.13;5093418;27;19920;-70
2023/05/07 12:00:53;;;;;;;;;;;;;;;-140.72;0.00;52435.50;5092787;28;20311;-71
2023/05/07 12:03:18;;;;;;;;;;;;;;;-140.72;8.16;52459.84;5099844;28;19963;-70
2023/05/07 12:05:45;;;;;;;;;;;;;;;-140.72;0.00;52478.13;5101420;28;19963;-73
2023/05/07 12:08:13;;;;;;;;;;;;;;;-140.72;0.00;52500.44;5100603;28;19919;-71
2023/05/07 12:10:42;;;;;;;;;;;;;;;-140.72;32.87;52492.31;5099814;28;20019;-71
2023/05/07 12:13:14;;;;;;;;;;;;;;;-140.72;0.00;52427.38;5098225;28;19919;-69
2023/05/07 12:15:40;;;;;;;;;;;;;;;-140.72;0.00;52447.69;5088076;28;19919;-69